Ain Arnat, Algeria

9:30 AM CET on February 12, 2016 (GMT +0100)
Setif | | Change Station
CLOSE
Current Station
Airport
Location: Setif,
Elevation: 3360 ft
Nearby Weather Stations

Elev 3360 ft 36.18 °N, 5.33 °E | Updated 30 minutes ago

Scattered Clouds
Scattered Clouds
50 °F
Feels Like 50 °F
N
7
Wind Variable Wind from SW

Today
High -- | Low -- °F
--% Chance of Precip.
Yesterday
High -- | Low -- °F
Precip. -- in
Pressure 30.04 in
Visibility 6.2 miles
Clouds Scattered Clouds 3000 ft
Dew Point 46 °F
Humidity 87%
Rainfall 0.00 in
Snow Depth Not available.
7:30 AM 6:16 PM
Waxing Crescent, 18% visible
METAR DAAS 120800Z 22006KT 9999 SCT030 10/08 Q1017
Pressure 30.04 in
Visibility 6.2 miles
Clouds Scattered Clouds 3000 ft
Dew Point 46 °F
Humidity 87%
Rainfall 0.00 in
Snow Depth Not available.
7:30 AM 6:16 PM
Waxing Crescent, 18% visible
METAR DAAS 120800Z 22006KT 9999 SCT030 10/08 Q1017

10-Day Weather Forecast

No radar image for this location.
×

Almanac

Astronomy

Feb. 12, 2016 Rise Set
Actual Time
Civil Twilight
Nautical Twilight
Astronomical Twilight
Moon
Length of Visible Light
Length of Day
Tomorrow will be .
, % of the Moon is Illuminated

Today's Extremes

Country Highs Country Lows

Community

WunderPhotos

Upload Photos

1,892,284 photos uploaded!

WunderBlog® & News

Nearby

Air Quality

  Air Quality AQ Index Pollutant
Not available.

Snow Depth

Station Depth Elevation

Earthquake Activity

City Distance Mag. Time & Date
Minimum magnitude displayed is 2.5.

Coastal Water Temperatures

Place Temperature

Stations

Nearby Weather Stations

Station Location Temp. Windchill Dew Point Humidity Wind Precip. Elev Updated Type